sensor_id;sensor_type;location;lat;lon;timestamp;P1;durP1;ratioP1;P2;durP2;ratioP2
21281;SDS011;10800;53.096;18.328;2023-02-24T00:02:04;36.20;;;12.03;;
21281;SDS011;10800;53.096;18.328;2023-02-24T00:07:10;34.63;;;13.10;;
21281;SDS011;10800;53.096;18.328;2023-02-24T00:12:16;33.83;;;12.10;;
21281;SDS011;10800;53.096;18.328;2023-02-24T00:17:23;31.67;;;12.47;;
21281;SDS011;10800;53.096;18.328;2023-02-24T00:22:30;40.77;;;14.17;;
21281;SDS011;10800;53.096;18.328;2023-02-24T00:27:36;41.07;;;15.23;;
21281;SDS011;10800;53.096;18.328;2023-02-24T00:32:41;30.27;;;12.60;;
21281;SDS011;10800;53.096;18.328;2023-02-24T00:37:48;43.60;;;12.93;;
21281;SDS011;10800;53.096;18.328;2023-02-24T00:42:53;27.27;;;12.57;;
21281;SDS011;10800;53.096;18.328;2023-02-24T00:47:59;42.63;;;13.97;;
21281;SDS011;10800;53.096;18.328;2023-02-24T00:53:06;25.10;;;10.93;;
21281;SDS011;10800;53.096;18.328;2023-02-24T00:58:15;26.97;;;11.20;;
21281;SDS011;10800;53.096;18.328;2023-02-24T01:03:22;47.10;;;13.00;;
21281;SDS011;10800;53.096;18.328;2023-02-24T01:08:28;30.10;;;11.10;;
21281;SDS011;10800;53.096;18.328;2023-02-24T01:13:37;29.57;;;12.93;;
21281;SDS011;10800;53.096;18.328;2023-02-24T01:18:42;34.00;;;11.73;;
21281;SDS011;10800;53.096;18.328;2023-02-24T01:23:50;28.70;;;10.07;;
21281;SDS011;10800;53.096;18.328;2023-02-24T01:28:56;29.13;;;9.37;;
21281;SDS011;10800;53.096;18.328;2023-02-24T01:34:02;35.40;;;12.40;;
21281;SDS011;10800;53.096;18.328;2023-02-24T01:39:09;27.77;;;10.40;;
21281;SDS011;10800;53.096;18.328;2023-02-24T01:49:31;26.80;;;9.93;;
21281;SDS011;10800;53.096;18.328;2023-02-24T01:54:42;24.00;;;10.27;;
21281;SDS011;10800;53.096;18.328;2023-02-24T01:59:52;23.60;;;9.90;;
21281;SDS011;10800;53.096;18.328;2023-02-24T02:05:02;27.73;;;9.50;;
21281;SDS011;10800;53.096;18.328;2023-02-24T02:10:10;27.43;;;10.30;;
21281;SDS011;10800;53.096;18.328;2023-02-24T02:15:16;26.03;;;8.60;;
21281;SDS011;10800;53.096;18.328;2023-02-24T02:20:40;24.60;;;8.60;;
21281;SDS011;10800;53.096;18.328;2023-02-24T02:36:55;18.60;;;7.47;;
21281;SDS011;10800;53.096;18.328;2023-02-24T02:42:27;18.40;;;6.87;;
21281;SDS011;10800;53.096;18.328;2023-02-24T02:47:43;22.77;;;7.77;;
21281;SDS011;10800;53.096;18.328;2023-02-24T02:52:51;18.03;;;7.70;;
21281;SDS011;10800;53.096;18.328;2023-02-24T02:58:01;14.87;;;6.97;;
21281;SDS011;10800;53.096;18.328;2023-02-24T03:03:11;20.83;;;8.13;;
21281;SDS011;10800;53.096;18.328;2023-02-24T03:08:23;18.90;;;7.70;;
21281;SDS011;10800;53.096;18.328;2023-02-24T03:13:29;22.63;;;6.73;;
21281;SDS011;10800;53.096;18.328;2023-02-24T03:18:38;20.67;;;7.73;;
21281;SDS011;10800;53.096;18.328;2023-02-24T03:23:52;31.93;;;7.97;;
21281;SDS011;10800;53.096;18.328;2023-02-24T03:29:05;17.97;;;6.80;;
21281;SDS011;10800;53.096;18.328;2023-02-24T03:34:29;26.27;;;8.57;;
21281;SDS011;10800;53.096;18.328;2023-02-24T03:39:35;13.33;;;6.30;;
21281;SDS011;10800;53.096;18.328;2023-02-24T03:44:40;16.97;;;6.90;;
21281;SDS011;10800;53.096;18.328;2023-02-24T03:49:46;20.03;;;8.10;;
21281;SDS011;10800;53.096;18.328;2023-02-24T03:54:57;23.73;;;7.10;;
21281;SDS011;10800;53.096;18.328;2023-02-24T04:00:27;17.07;;;7.67;;
21281;SDS011;10800;53.096;18.328;2023-02-24T04:05:50;22.43;;;7.87;;
21281;SDS011;10800;53.096;18.328;2023-02-24T04:11:02;20.90;;;6.70;;
21281;SDS011;10800;53.096;18.328;2023-02-24T04:21:25;15.10;;;5.57;;
21281;SDS011;10800;53.096;18.328;2023-02-24T04:26:34;21.80;;;7.13;;
21281;SDS011;10800;53.096;18.328;2023-02-24T04:31:47;17.07;;;6.87;;
21281;SDS011;10800;53.096;18.328;2023-02-24T04:36:55;20.00;;;8.07;;
21281;SDS011;10800;53.096;18.328;2023-02-24T04:42:01;13.73;;;6.33;;
21281;SDS011;10800;53.096;18.328;2023-02-24T04:47:08;22.33;;;7.43;;
21281;SDS011;10800;53.096;18.328;2023-02-24T04:52:14;23.50;;;7.50;;
21281;SDS011;10800;53.096;18.328;2023-02-24T04:57:21;18.90;;;7.13;;
21281;SDS011;10800;53.096;18.328;2023-02-24T05:02:28;18.30;;;5.70;;
21281;SDS011;10800;53.096;18.328;2023-02-24T05:07:34;25.23;;;7.10;;
21281;SDS011;10800;53.096;18.328;2023-02-24T05:12:40;24.33;;;7.97;;
21281;SDS011;10800;53.096;18.328;2023-02-24T05:17:46;28.93;;;8.10;;
21281;SDS011;10800;53.096;18.328;2023-02-24T05:22:53;23.00;;;7.80;;
21281;SDS011;10800;53.096;18.328;2023-02-24T05:27:59;19.83;;;6.77;;
21281;SDS011;10800;53.096;18.328;2023-02-24T05:33:06;16.60;;;7.47;;
21281;SDS011;10800;53.096;18.328;2023-02-24T05:38:12;21.77;;;7.90;;
21281;SDS011;10800;53.096;18.328;2023-02-24T05:43:19;24.43;;;7.30;;
21281;SDS011;10800;53.096;18.328;2023-02-24T05:48:26;24.33;;;7.97;;
21281;SDS011;10800;53.096;18.328;2023-02-24T05:53:33;29.87;;;8.53;;
21281;SDS011;10800;53.096;18.328;2023-02-24T05:58:39;27.13;;;6.90;;
21281;SDS011;10800;53.096;18.328;2023-02-24T06:03:46;17.93;;;6.30;;
21281;SDS011;10800;53.096;18.328;2023-02-24T06:08:53;30.87;;;6.60;;
21281;SDS011;10800;53.096;18.328;2023-02-24T06:14:01;16.17;;;6.33;;
21281;SDS011;10800;53.096;18.328;2023-02-24T06:19:09;16.23;;;5.73;;
21281;SDS011;10800;53.096;18.328;2023-02-24T06:24:16;17.87;;;6.17;;
21281;SDS011;10800;53.096;18.328;2023-02-24T06:29:30;14.00;;;5.83;;
21281;SDS011;10800;53.096;18.328;2023-02-24T06:34:38;18.73;;;5.47;;
21281;SDS011;10800;53.096;18.328;2023-02-24T06:39:45;13.33;;;5.13;;
21281;SDS011;10800;53.096;18.328;2023-02-24T06:44:50;14.90;;;6.10;;
21281;SDS011;10800;53.096;18.328;2023-02-24T06:49:57;17.00;;;6.20;;
21281;SDS011;10800;53.096;18.328;2023-02-24T06:55:04;217.67;;;39.40;;
21281;SDS011;10800;53.096;18.328;2023-02-24T07:00:15;16.67;;;5.13;;
21281;SDS011;10800;53.096;18.328;2023-02-24T07:05:22;13.13;;;3.87;;
21281;SDS011;10800;53.096;18.328;2023-02-24T07:10:29;4.10;;;1.77;;
21281;SDS011;10800;53.096;18.328;2023-02-24T07:15:35;117.80;;;21.67;;
21281;SDS011;10800;53.096;18.328;2023-02-24T07:20:41;4.43;;;2.10;;
21281;SDS011;10800;53.096;18.328;2023-02-24T07:25:48;4.57;;;2.40;;
21281;SDS011;10800;53.096;18.328;2023-02-24T07:30:56;11.30;;;2.03;;
21281;SDS011;10800;53.096;18.328;2023-02-24T07:36:02;4.57;;;2.30;;
21281;SDS011;10800;53.096;18.328;2023-02-24T07:41:11;9.67;;;3.10;;
21281;SDS011;10800;53.096;18.328;2023-02-24T07:46:27;8.77;;;2.70;;
21281;SDS011;10800;53.096;18.328;2023-02-24T07:51:28;5.03;;;2.37;;
21281;SDS011;10800;53.096;18.328;2023-02-24T07:56:38;5.47;;;2.03;;
21281;SDS011;10800;53.096;18.328;2023-02-24T08:01:46;7.60;;;2.90;;
21281;SDS011;10800;53.096;18.328;2023-02-24T08:06:56;9.23;;;3.40;;
21281;SDS011;10800;53.096;18.328;2023-02-24T08:12:03;15.33;;;4.13;;
21281;SDS011;10800;53.096;18.328;2023-02-24T08:17:10;10.77;;;2.47;;
21281;SDS011;10800;53.096;18.328;2023-02-24T08:22:18;8.67;;;2.30;;
21281;SDS011;10800;53.096;18.328;2023-02-24T08:27:24;7.33;;;2.57;;
21281;SDS011;10800;53.096;18.328;2023-02-24T08:32:34;11.20;;;2.97;;
21281;SDS011;10800;53.096;18.328;2023-02-24T08:37:50;3.20;;;2.17;;
21281;SDS011;10800;53.096;18.328;2023-02-24T08:43:07;10.43;;;3.13;;
21281;SDS011;10800;53.096;18.328;2023-02-24T08:48:20;5.93;;;2.30;;
21281;SDS011;10800;53.096;18.328;2023-02-24T08:53:41;11.83;;;1.63;;
21281;SDS011;10800;53.096;18.328;2023-02-24T08:58:51;9.87;;;1.57;;
21281;SDS011;10800;53.096;18.328;2023-02-24T09:04:07;3.20;;;1.60;;
21281;SDS011;10800;53.096;18.328;2023-02-24T09:09:16;2.10;;;1.37;;
21281;SDS011;10800;53.096;18.328;2023-02-24T09:14:30;4.47;;;1.83;;
21281;SDS011;10800;53.096;18.328;2023-02-24T09:19:41;4.50;;;2.00;;
21281;SDS011;10800;53.096;18.328;2023-02-24T09:24:57;3.53;;;1.50;;
21281;SDS011;10800;53.096;18.328;2023-02-24T09:30:27;9.23;;;2.57;;
21281;SDS011;10800;53.096;18.328;2023-02-24T09:35:39;11.80;;;2.43;;
21281;SDS011;10800;53.096;18.328;2023-02-24T09:40:47;4.77;;;2.07;;
21281;SDS011;10800;53.096;18.328;2023-02-24T09:45:59;2.37;;;1.60;;
21281;SDS011;10800;53.096;18.328;2023-02-24T09:51:09;7.07;;;1.97;;
21281;SDS011;10800;53.096;18.328;2023-02-24T10:01:46;4.00;;;1.73;;
21281;SDS011;10800;53.096;18.328;2023-02-24T10:07:05;3.33;;;2.00;;
21281;SDS011;10800;53.096;18.328;2023-02-24T10:17:22;4.37;;;1.47;;
21281;SDS011;10800;53.096;18.328;2023-02-24T10:22:37;9.50;;;1.40;;
21281;SDS011;10800;53.096;18.328;2023-02-24T10:27:51;1.70;;;1.53;;
21281;SDS011;10800;53.096;18.328;2023-02-24T10:32:59;1.10;;;0.87;;
21281;SDS011;10800;53.096;18.328;2023-02-24T10:38:09;2.60;;;1.30;;
21281;SDS011;10800;53.096;18.328;2023-02-24T10:43:17;3.87;;;1.20;;
21281;SDS011;10800;53.096;18.328;2023-02-24T10:48:26;3.23;;;1.47;;
21281;SDS011;10800;53.096;18.328;2023-02-24T10:53:35;2.87;;;1.60;;
21281;SDS011;10800;53.096;18.328;2023-02-24T10:58:42;1.40;;;1.10;;
21281;SDS011;10800;53.096;18.328;2023-02-24T11:03:54;11.27;;;1.40;;
21281;SDS011;10800;53.096;18.328;2023-02-24T11:09:19;1.60;;;0.87;;
21281;SDS011;10800;53.096;18.328;2023-02-24T11:14:33;1.70;;;0.80;;
21281;SDS011;10800;53.096;18.328;2023-02-24T11:20:00;3.00;;;1.30;;
21281;SDS011;10800;53.096;18.328;2023-02-24T11:25:32;1.77;;;1.27;;
21281;SDS011;10800;53.096;18.328;2023-02-24T11:30:44;2.83;;;1.20;;
21281;SDS011;10800;53.096;18.328;2023-02-24T11:41:17;2.77;;;1.50;;
21281;SDS011;10800;53.096;18.328;2023-02-24T11:46:21;6.43;;;1.33;;
21281;SDS011;10800;53.096;18.328;2023-02-24T11:51:33;1.30;;;0.93;;
21281;SDS011;10800;53.096;18.328;2023-02-24T11:56:40;6.07;;;1.63;;
21281;SDS011;10800;53.096;18.328;2023-02-24T12:01:54;1.13;;;1.03;;
21281;SDS011;10800;53.096;18.328;2023-02-24T12:07:30;2.07;;;1.13;;
21281;SDS011;10800;53.096;18.328;2023-02-24T12:17:40;4.97;;;1.77;;
21281;SDS011;10800;53.096;18.328;2023-02-24T12:23:01;3.27;;;1.57;;
21281;SDS011;10800;53.096;18.328;2023-02-24T12:28:24;7.40;;;2.40;;
21281;SDS011;10800;53.096;18.328;2023-02-24T12:33:25;5.87;;;1.23;;
21281;SDS011;10800;53.096;18.328;2023-02-24T12:38:40;8.53;;;2.00;;
21281;SDS011;10800;53.096;18.328;2023-02-24T12:43:50;7.73;;;2.13;;
21281;SDS011;10800;53.096;18.328;2023-02-24T12:49:21;6.87;;;1.70;;
21281;SDS011;10800;53.096;18.328;2023-02-24T12:59:40;4.43;;;2.20;;
21281;SDS011;10800;53.096;18.328;2023-02-24T13:10:19;4.47;;;3.50;;
21281;SDS011;10800;53.096;18.328;2023-02-24T13:15:29;4.17;;;1.67;;
21281;SDS011;10800;53.096;18.328;2023-02-24T13:20:36;3.80;;;1.47;;
21281;SDS011;10800;53.096;18.328;2023-02-24T13:25:49;3.10;;;1.40;;
21281;SDS011;10800;53.096;18.328;2023-02-24T13:31:02;4.67;;;1.30;;
21281;SDS011;10800;53.096;18.328;2023-02-24T13:36:13;2.40;;;1.20;;
21281;SDS011;10800;53.096;18.328;2023-02-24T13:46:44;1.27;;;1.00;;
21281;SDS011;10800;53.096;18.328;2023-02-24T13:52:03;1.87;;;1.03;;
21281;SDS011;10800;53.096;18.328;2023-02-24T14:02:36;7.60;;;1.60;;
21281;SDS011;10800;53.096;18.328;2023-02-24T14:07:46;2.20;;;0.80;;
21281;SDS011;10800;53.096;18.328;2023-02-24T14:13:00;0.90;;;0.90;;
21281;SDS011;10800;53.096;18.328;2023-02-24T14:18:18;0.73;;;0.73;;
21281;SDS011;10800;53.096;18.328;2023-02-24T14:23:29;1.43;;;1.10;;
21281;SDS011;10800;53.096;18.328;2023-02-24T14:28:38;3.03;;;1.50;;
21281;SDS011;10800;53.096;18.328;2023-02-24T14:33:45;2.93;;;1.57;;
21281;SDS011;10800;53.096;18.328;2023-02-24T14:44:28;5.73;;;1.10;;
21281;SDS011;10800;53.096;18.328;2023-02-24T14:49:34;1.07;;;0.97;;
21281;SDS011;10800;53.096;18.328;2023-02-24T14:59:55;2.20;;;0.90;;
21281;SDS011;10800;53.096;18.328;2023-02-24T15:05:01;8.73;;;2.50;;
21281;SDS011;10800;53.096;18.328;2023-02-24T15:10:16;2.10;;;1.00;;
21281;SDS011;10800;53.096;18.328;2023-02-24T15:15:24;3.23;;;1.00;;
21281;SDS011;10800;53.096;18.328;2023-02-24T15:20:34;5.77;;;1.70;;
21281;SDS011;10800;53.096;18.328;2023-02-24T15:25:43;0.97;;;0.83;;
21281;SDS011;10800;53.096;18.328;2023-02-24T15:31:15;2.17;;;1.60;;
21281;SDS011;10800;53.096;18.328;2023-02-24T15:36:24;10.43;;;1.40;;
21281;SDS011;10800;53.096;18.328;2023-02-24T15:41:42;0.70;;;0.70;;
21281;SDS011;10800;53.096;18.328;2023-02-24T15:46:57;7.50;;;1.53;;
21281;SDS011;10800;53.096;18.328;2023-02-24T15:52:07;8.00;;;1.13;;
21281;SDS011;10800;53.096;18.328;2023-02-24T15:57:15;1.83;;;0.93;;
21281;SDS011;10800;53.096;18.328;2023-02-24T16:02:46;1.63;;;1.27;;
21281;SDS011;10800;53.096;18.328;2023-02-24T16:13:30;13.27;;;1.73;;
21281;SDS011;10800;53.096;18.328;2023-02-24T16:18:50;2.07;;;1.23;;
21281;SDS011;10800;53.096;18.328;2023-02-24T16:24:07;1.80;;;1.30;;
21281;SDS011;10800;53.096;18.328;2023-02-24T16:29:17;1.27;;;1.17;;
21281;SDS011;10800;53.096;18.328;2023-02-24T16:34:31;2.60;;;2.30;;
21281;SDS011;10800;53.096;18.328;2023-02-24T16:39:41;4.93;;;1.47;;
21281;SDS011;10800;53.096;18.328;2023-02-24T16:44:50;4.73;;;3.13;;
21281;SDS011;10800;53.096;18.328;2023-02-24T16:50:01;15.17;;;3.97;;
21281;SDS011;10800;53.096;18.328;2023-02-24T16:55:09;3.93;;;2.40;;
21281;SDS011;10800;53.096;18.328;2023-02-24T17:00:25;5.93;;;1.97;;
21281;SDS011;10800;53.096;18.328;2023-02-24T17:05:30;8.70;;;1.73;;
21281;SDS011;10800;53.096;18.328;2023-02-24T17:10:36;5.40;;;1.20;;
21281;SDS011;10800;53.096;18.328;2023-02-24T17:15:42;6.20;;;1.13;;
21281;SDS011;10800;53.096;18.328;2023-02-24T17:20:48;4.13;;;1.50;;
21281;SDS011;10800;53.096;18.328;2023-02-24T17:25:59;6.73;;;1.47;;
21281;SDS011;10800;53.096;18.328;2023-02-24T17:31:02;3.30;;;1.87;;
21281;SDS011;10800;53.096;18.328;2023-02-24T17:36:09;1.80;;;1.00;;
21281;SDS011;10800;53.096;18.328;2023-02-24T17:41:14;5.93;;;1.13;;
21281;SDS011;10800;53.096;18.328;2023-02-24T17:46:19;2.47;;;1.40;;
21281;SDS011;10800;53.096;18.328;2023-02-24T17:51:26;4.13;;;1.80;;
21281;SDS011;10800;53.096;18.328;2023-02-24T17:56:32;6.20;;;1.60;;
21281;SDS011;10800;53.096;18.328;2023-02-24T18:01:37;2.87;;;2.27;;
21281;SDS011;10800;53.096;18.328;2023-02-24T18:06:42;1.80;;;1.10;;
21281;SDS011;10800;53.096;18.328;2023-02-24T18:11:48;4.47;;;1.37;;
21281;SDS011;10800;53.096;18.328;2023-02-24T18:16:53;2.20;;;1.80;;
21281;SDS011;10800;53.096;18.328;2023-02-24T18:21:59;2.53;;;1.03;;
21281;SDS011;10800;53.096;18.328;2023-02-24T18:27:04;3.07;;;1.83;;
21281;SDS011;10800;53.096;18.328;2023-02-24T18:32:11;3.23;;;1.57;;
21281;SDS011;10800;53.096;18.328;2023-02-24T18:37:19;6.90;;;1.50;;
21281;SDS011;10800;53.096;18.328;2023-02-24T18:42:24;3.87;;;2.00;;
21281;SDS011;10800;53.096;18.328;2023-02-24T18:47:29;2.73;;;2.00;;
21281;SDS011;10800;53.096;18.328;2023-02-24T18:52:35;4.83;;;1.27;;
21281;SDS011;10800;53.096;18.328;2023-02-24T18:57:40;1.70;;;1.20;;
21281;SDS011;10800;53.096;18.328;2023-02-24T19:02:45;4.03;;;1.57;;
21281;SDS011;10800;53.096;18.328;2023-02-24T19:07:51;2.37;;;1.57;;
21281;SDS011;10800;53.096;18.328;2023-02-24T19:12:56;3.13;;;1.50;;
21281;SDS011;10800;53.096;18.328;2023-02-24T19:18:02;4.00;;;1.63;;
21281;SDS011;10800;53.096;18.328;2023-02-24T19:23:07;4.37;;;1.67;;
21281;SDS011;10800;53.096;18.328;2023-02-24T19:28:13;5.23;;;1.33;;
21281;SDS011;10800;53.096;18.328;2023-02-24T19:33:19;13.40;;;1.90;;
21281;SDS011;10800;53.096;18.328;2023-02-24T19:38:45;4.70;;;1.63;;
21281;SDS011;10800;53.096;18.328;2023-02-24T19:43:50;2.30;;;1.77;;
21281;SDS011;10800;53.096;18.328;2023-02-24T19:48:56;3.43;;;3.13;;
21281;SDS011;10800;53.096;18.328;2023-02-24T19:54:01;14.67;;;2.73;;
21281;SDS011;10800;53.096;18.328;2023-02-24T19:59:08;3.77;;;1.93;;
21281;SDS011;10800;53.096;18.328;2023-02-24T20:04:16;12.70;;;2.10;;
21281;SDS011;10800;53.096;18.328;2023-02-24T20:09:21;6.80;;;2.13;;
21281;SDS011;10800;53.096;18.328;2023-02-24T20:14:27;1.80;;;1.63;;
21281;SDS011;10800;53.096;18.328;2023-02-24T20:19:33;5.27;;;2.33;;
21281;SDS011;10800;53.096;18.328;2023-02-24T20:24:38;1.40;;;1.30;;
21281;SDS011;10800;53.096;18.328;2023-02-24T20:29:44;8.13;;;1.80;;
21281;SDS011;10800;53.096;18.328;2023-02-24T20:34:50;2.67;;;2.13;;
21281;SDS011;10800;53.096;18.328;2023-02-24T20:45:08;4.33;;;1.80;;
21281;SDS011;10800;53.096;18.328;2023-02-24T20:50:14;2.77;;;1.67;;
21281;SDS011;10800;53.096;18.328;2023-02-24T20:55:20;3.07;;;1.77;;
21281;SDS011;10800;53.096;18.328;2023-02-24T21:00:26;5.40;;;1.23;;
21281;SDS011;10800;53.096;18.328;2023-02-24T21:05:44;2.77;;;1.47;;
21281;SDS011;10800;53.096;18.328;2023-02-24T21:10:49;5.67;;;1.33;;
21281;SDS011;10800;53.096;18.328;2023-02-24T21:15:55;2.90;;;1.67;;
21281;SDS011;10800;53.096;18.328;2023-02-24T21:21:01;1.03;;;0.83;;
21281;SDS011;10800;53.096;18.328;2023-02-24T21:26:17;2.63;;;1.13;;
21281;SDS011;10800;53.096;18.328;2023-02-24T21:31:17;9.63;;;1.53;;
21281;SDS011;10800;53.096;18.328;2023-02-24T21:36:25;2.30;;;1.03;;
21281;SDS011;10800;53.096;18.328;2023-02-24T21:41:30;3.77;;;0.93;;
21281;SDS011;10800;53.096;18.328;2023-02-24T21:46:37;1.83;;;1.50;;
21281;SDS011;10800;53.096;18.328;2023-02-24T21:51:43;1.37;;;1.27;;
21281;SDS011;10800;53.096;18.328;2023-02-24T21:56:48;1.33;;;0.80;;
21281;SDS011;10800;53.096;18.328;2023-02-24T22:01:54;1.40;;;1.20;;
21281;SDS011;10800;53.096;18.328;2023-02-24T22:06:59;1.03;;;0.73;;
21281;SDS011;10800;53.096;18.328;2023-02-24T22:12:05;3.57;;;1.60;;
21281;SDS011;10800;53.096;18.328;2023-02-24T22:17:10;7.43;;;1.70;;
21281;SDS011;10800;53.096;18.328;2023-02-24T22:22:15;1.67;;;1.10;;
21281;SDS011;10800;53.096;18.328;2023-02-24T22:27:21;4.57;;;1.00;;
21281;SDS011;10800;53.096;18.328;2023-02-24T22:32:27;2.60;;;1.33;;
21281;SDS011;10800;53.096;18.328;2023-02-24T22:37:32;2.47;;;1.40;;
21281;SDS011;10800;53.096;18.328;2023-02-24T22:42:38;1.80;;;1.00;;
21281;SDS011;10800;53.096;18.328;2023-02-24T22:47:43;2.40;;;1.13;;
21281;SDS011;10800;53.096;18.328;2023-02-24T22:52:48;1.50;;;1.17;;
21281;SDS011;10800;53.096;18.328;2023-02-24T22:57:53;2.43;;;1.80;;
21281;SDS011;10800;53.096;18.328;2023-02-24T23:02:59;2.63;;;1.63;;
21281;SDS011;10800;53.096;18.328;2023-02-24T23:08:04;2.57;;;1.50;;
21281;SDS011;10800;53.096;18.328;2023-02-24T23:13:10;3.57;;;1.47;;
21281;SDS011;10800;53.096;18.328;2023-02-24T23:18:16;2.20;;;1.43;;
21281;SDS011;10800;53.096;18.328;2023-02-24T23:23:21;3.10;;;2.33;;
21281;SDS011;10800;53.096;18.328;2023-02-24T23:28:26;4.20;;;2.10;;
21281;SDS011;10800;53.096;18.328;2023-02-24T23:33:32;2.40;;;1.53;;
21281;SDS011;10800;53.096;18.328;2023-02-24T23:38:37;2.23;;;1.67;;
21281;SDS011;10800;53.096;18.328;2023-02-24T23:43:43;3.03;;;2.20;;
21281;SDS011;10800;53.096;18.328;2023-02-24T23:48:51;3.20;;;1.80;;
21281;SDS011;10800;53.096;18.328;2023-02-24T23:53:57;7.90;;;1.90;;
21281;SDS011;10800;53.096;18.328;2023-02-24T23:59:03;2.30;;;1.37;;
